createdAt,value
2023-05-17T00:00:30.439Z,17.9612
2023-05-17T00:01:32.149Z,17.9982
2023-05-17T00:02:33.923Z,17.9750
2023-05-17T00:03:35.635Z,17.9329
2023-05-17T00:04:37.405Z,17.9676
2023-05-17T00:05:39.125Z,17.9407
2023-05-17T00:06:40.832Z,17.9407
2023-05-17T00:07:42.557Z,17.9600
2023-05-17T00:08:44.359Z,17.9245
2023-05-17T00:09:46.018Z,17.9489
2023-05-17T00:10:47.758Z,17.9579
2023-05-17T00:11:49.509Z,17.9555
2023-05-17T00:12:51.204Z,17.9579
2023-05-17T00:13:52.952Z,17.9742
2023-05-17T00:14:54.676Z,17.9438
2023-05-17T00:15:56.431Z,17.9253
2023-05-17T00:16:58.167Z,17.9503
2023-05-17T00:17:59.914Z,17.9279
2023-05-17T00:19:01.694Z,17.9222
2023-05-17T00:20:03.370Z,17.9571
2023-05-17T00:21:05.070Z,17.9382
2023-05-17T00:22:06.809Z,17.9555
2023-05-17T00:23:08.547Z,17.9191
2023-05-17T00:24:10.323Z,17.9189
2023-05-17T00:25:12.030Z,17.8961
2023-05-17T00:26:13.735Z,17.9166
2023-05-17T00:27:15.469Z,17.8587
2023-05-17T00:28:17.211Z,17.8821
2023-05-17T00:29:18.985Z,17.8832
2023-05-17T00:30:20.693Z,17.8910
2023-05-17T00:31:22.403Z,17.8782
2023-05-17T00:32:24.163Z,17.9242
2023-05-17T00:33:25.876Z,17.9049
2023-05-17T00:34:27.665Z,17.8534
2023-05-17T00:35:29.624Z,17.8801
2023-05-17T00:36:31.085Z,17.8511
2023-05-17T00:37:32.816Z,17.8922
2023-05-17T00:38:34.550Z,17.8897
2023-05-17T00:39:36.300Z,17.8823
2023-05-17T00:40:38.034Z,17.8392
2023-05-17T00:41:39.761Z,17.8501
2023-05-17T00:42:41.488Z,17.8819
2023-05-17T00:43:43.224Z,17.8511
2023-05-17T00:44:44.985Z,17.8556
2023-05-17T00:45:46.765Z,17.8168
2023-05-17T00:46:48.524Z,17.8575
2023-05-17T00:47:50.358Z,17.8639
2023-05-17T00:48:51.964Z,17.8080
2023-05-17T00:49:53.706Z,17.8460
2023-05-17T00:50:55.463Z,17.8745
2023-05-17T00:51:57.187Z,17.8521
2023-05-17T00:52:58.960Z,17.8448
2023-05-17T00:54:00.642Z,17.8372
2023-05-17T00:55:02.420Z,17.8047
2023-05-17T00:56:04.136Z,17.8057
2023-05-17T00:57:05.840Z,17.7973
2023-05-17T00:58:07.571Z,17.8248
2023-05-17T00:59:09.341Z,17.7786
2023-05-17T01:00:11.045Z,17.8415
2023-05-17T01:01:12.822Z,17.7766
2023-05-17T01:02:14.532Z,17.8565
2023-05-17T01:03:16.300Z,17.8018
2023-05-17T01:04:18.205Z,17.8296
2023-05-17T01:05:19.730Z,17.8049
2023-05-17T01:06:21.447Z,17.7994
2023-05-17T01:07:23.310Z,17.8035
2023-05-17T01:08:24.914Z,17.7940
2023-05-17T01:09:26.654Z,17.8291
2023-05-17T01:10:28.450Z,17.8016
2023-05-17T01:11:30.153Z,17.7926
2023-05-17T01:12:31.926Z,17.8162
2023-05-17T01:13:33.594Z,17.7700
2023-05-17T01:14:35.347Z,17.7694
2023-05-17T01:15:37.059Z,17.8006
2023-05-17T01:16:38.810Z,17.8111
2023-05-17T01:17:40.613Z,17.7716
2023-05-17T01:18:42.465Z,17.7864
2023-05-17T01:19:44.069Z,17.7519
2023-05-17T01:20:45.729Z,17.7605
2023-05-17T01:21:47.469Z,17.7731
2023-05-17T01:22:49.218Z,17.7519
2023-05-17T01:23:50.978Z,17.7741
2023-05-17T01:24:52.668Z,17.7496
2023-05-17T01:25:54.497Z,17.7533
2023-05-17T01:26:56.157Z,17.7349
2023-05-17T01:27:57.873Z,17.7525
2023-05-17T01:28:59.614Z,17.7139
2023-05-17T01:30:01.359Z,17.7410
2023-05-17T01:31:03.104Z,17.7455
2023-05-17T01:32:04.835Z,17.7355
2023-05-17T01:33:06.600Z,17.7457
2023-05-17T01:34:08.290Z,17.7203
2023-05-17T01:35:10.025Z,17.7562
2023-05-17T01:36:11.789Z,17.7236
2023-05-17T01:37:13.508Z,17.7509
2023-05-17T01:38:15.285Z,17.7240
2023-05-17T01:39:16.979Z,17.7279
2023-05-17T01:40:18.687Z,17.7305
2023-05-17T01:41:20.465Z,17.6845
2023-05-17T01:42:22.182Z,17.7262
2023-05-17T01:43:23.896Z,17.7153
2023-05-17T01:44:25.653Z,17.7184
2023-05-17T01:45:27.666Z,17.7240
2023-05-17T01:46:29.134Z,17.6940
2023-05-17T01:47:30.892Z,17.7258
2023-05-17T01:48:32.590Z,17.6964
2023-05-17T01:49:34.311Z,17.7334
2023-05-17T01:50:36.080Z,17.6907
2023-05-17T01:51:37.799Z,17.7014
2023-05-17T01:52:39.522Z,17.7180
2023-05-17T01:53:41.309Z,17.6948
2023-05-17T01:54:42.972Z,17.7301
2023-05-17T01:55:44.735Z,17.7010
2023-05-17T01:56:46.469Z,17.6917
2023-05-17T01:57:48.178Z,17.6582
2023-05-17T01:58:49.945Z,17.6282
2023-05-17T01:59:51.670Z,17.6897
2023-05-17T02:00:53.391Z,17.6562
2023-05-17T02:01:55.126Z,17.7184
2023-05-17T02:02:56.980Z,17.6749
2023-05-17T02:03:58.677Z,17.6650
2023-05-17T02:05:00.369Z,17.6738
2023-05-17T02:06:05.665Z,17.6704
2023-05-17T02:07:09.541Z,17.6682
2023-05-17T02:08:13.471Z,17.6753
2023-05-17T02:09:17.382Z,17.6704
2023-05-17T02:10:21.263Z,17.6706
2023-05-17T02:11:25.292Z,17.6432
2023-05-17T02:12:29.225Z,17.6517
2023-05-17T02:13:33.098Z,17.6446
2023-05-17T02:14:37.005Z,17.6644
2023-05-17T02:15:40.887Z,17.6330
2023-05-17T02:16:44.770Z,17.6446
2023-05-17T02:17:48.811Z,17.6679
2023-05-17T02:18:52.910Z,17.6528
2023-05-17T02:19:56.864Z,17.6143
2023-05-17T02:21:00.754Z,17.6424
2023-05-17T02:22:05.387Z,17.6399
2023-05-17T02:23:09.299Z,17.6321
2023-05-17T02:24:13.214Z,17.6110
2023-05-17T02:25:17.099Z,17.6181
2023-05-17T02:26:20.996Z,17.6479
2023-05-17T02:27:25.124Z,17.6281
2023-05-17T02:28:29.112Z,17.6047
2023-05-17T02:29:33.195Z,17.6203
2023-05-17T02:30:37.069Z,17.6401
2023-05-17T02:31:41.218Z,17.5963
2023-05-17T02:32:45.278Z,17.6043
2023-05-17T02:33:49.280Z,17.5705
2023-05-17T02:34:53.372Z,17.6023
2023-05-17T02:35:57.262Z,17.5990
2023-05-17T02:37:01.160Z,17.5952
2023-05-17T02:38:05.065Z,17.5814
2023-05-17T02:39:09.241Z,17.5832
2023-05-17T02:40:13.209Z,17.5990
2023-05-17T02:41:17.146Z,17.6225
2023-05-17T02:42:21.303Z,17.5974
2023-05-17T02:43:25.187Z,17.6239
2023-05-17T02:44:29.531Z,17.5852
2023-05-17T02:45:33.392Z,17.6014
2023-05-17T02:46:38.571Z,17.6148
2023-05-17T02:47:42.726Z,17.5694
2023-05-17T02:48:46.621Z,17.5914
2023-05-17T02:49:50.592Z,17.5816
2023-05-17T02:50:54.513Z,17.5901
2023-05-17T02:51:58.416Z,17.5767
2023-05-17T02:53:02.306Z,17.5916
2023-05-17T02:54:06.490Z,17.5467
2023-05-17T02:55:10.380Z,17.5636
2023-05-17T02:56:14.239Z,17.5547
2023-05-17T02:57:18.442Z,17.5415
2023-05-17T02:58:22.362Z,17.5731
2023-05-17T02:59:26.525Z,17.5533
2023-05-17T03:00:30.441Z,17.5607
2023-05-17T03:01:34.314Z,17.5467
2023-05-17T03:02:38.272Z,17.5284
2023-05-17T03:03:42.393Z,17.5395
2023-05-17T03:04:42.952Z,17.5665
2023-05-17T03:05:46.819Z,17.5240
2023-05-17T03:06:50.708Z,17.5511
2023-05-17T03:07:54.594Z,17.5476
2023-05-17T03:08:58.512Z,17.5418
2023-05-17T03:10:02.429Z,17.5253
2023-05-17T03:11:06.336Z,17.5496
2023-05-17T03:12:10.248Z,17.5229
2023-05-17T03:13:14.149Z,17.5171
2023-05-17T03:14:18.126Z,17.5137
2023-05-17T03:15:22.035Z,17.4966
2023-05-17T03:16:26.054Z,17.5393
2023-05-17T03:17:29.987Z,17.5442
2023-05-17T03:18:34.005Z,17.5511
2023-05-17T03:19:38.039Z,17.5197
2023-05-17T03:20:41.893Z,17.5395
2023-05-17T03:21:45.817Z,17.4881
2023-05-17T03:22:49.710Z,17.5140
2023-05-17T03:23:53.582Z,17.4997
2023-05-17T03:24:53.963Z,17.5182
2023-05-17T03:25:57.871Z,17.5102
2023-05-17T03:27:01.792Z,17.5286
2023-05-17T03:28:05.687Z,17.4844
2023-05-17T03:29:09.558Z,17.4946
2023-05-17T03:30:13.489Z,17.5022
2023-05-17T03:31:17.353Z,17.4799
2023-05-17T03:32:21.315Z,17.5160
2023-05-17T03:33:25.232Z,17.4819
2023-05-17T03:34:29.146Z,17.5055
2023-05-17T03:35:33.060Z,17.4712
2023-05-17T03:36:36.979Z,17.5022
2023-05-17T03:37:41.166Z,17.4832
2023-05-17T03:38:45.041Z,17.4879
2023-05-17T03:39:49.181Z,17.4830
2023-05-17T03:40:53.065Z,17.4646
2023-05-17T03:41:56.958Z,17.4995
2023-05-17T03:43:00.872Z,17.4621
2023-05-17T03:44:04.754Z,17.4537
2023-05-17T03:45:08.655Z,17.4610
2023-05-17T03:46:12.569Z,17.4772
2023-05-17T03:47:16.796Z,17.4901
2023-05-17T03:48:20.756Z,17.4726
2023-05-17T03:49:24.858Z,17.4819
2023-05-17T03:50:28.790Z,17.4726
2023-05-17T03:51:32.695Z,17.4775
2023-05-17T03:52:36.582Z,17.4723
2023-05-17T03:53:40.468Z,17.4657
2023-05-17T03:54:45.269Z,17.4654
2023-05-17T03:55:44.830Z,17.5010
2023-05-17T03:56:48.755Z,17.4728
2023-05-17T03:57:52.672Z,17.4590
2023-05-17T03:58:56.566Z,17.4755
2023-05-17T04:00:00.470Z,17.4376
2023-05-17T04:01:04.343Z,17.4307
2023-05-17T04:02:08.232Z,17.4679
2023-05-17T04:03:12.142Z,17.4376
2023-05-17T04:04:16.388Z,17.4176
2023-05-17T04:05:20.401Z,17.4588
2023-05-17T04:06:24.365Z,17.4623
2023-05-17T04:07:28.277Z,17.4180
2023-05-17T04:08:32.185Z,17.4109
2023-05-17T04:09:36.109Z,17.3851
2023-05-17T04:10:40.025Z,17.4098
2023-05-17T04:11:43.916Z,17.4361
2023-05-17T04:12:47.780Z,17.4272
2023-05-17T04:13:51.679Z,17.4314
2023-05-17T04:14:55.597Z,17.4225
2023-05-17T04:15:59.515Z,17.4352
2023-05-17T04:17:03.641Z,17.4000
2023-05-17T04:18:07.587Z,17.3907
2023-05-17T04:19:11.585Z,17.4083
2023-05-17T04:20:15.740Z,17.4303
2023-05-17T04:21:19.605Z,17.3994
2023-05-17T04:22:23.733Z,17.3996
2023-05-17T04:23:27.632Z,17.3956
2023-05-17T04:24:31.524Z,17.4047
2023-05-17T04:25:35.436Z,17.3940
2023-05-17T04:26:39.341Z,17.3933
2023-05-17T04:27:43.229Z,17.3642
2023-05-17T04:28:47.139Z,17.3907
2023-05-17T04:29:51.025Z,17.4025
2023-05-17T04:30:54.894Z,17.3931
2023-05-17T04:31:58.797Z,17.4025
2023-05-17T04:33:02.764Z,17.4083
2023-05-17T04:34:06.758Z,17.3991
2023-05-17T04:35:10.643Z,17.4036
2023-05-17T04:36:14.744Z,17.3882
2023-05-17T04:37:18.590Z,17.3851
2023-05-17T04:38:22.478Z,17.3844
2023-05-17T04:39:26.540Z,17.3969
2023-05-17T04:40:31.154Z,17.3533
2023-05-17T04:41:35.087Z,17.3718
2023-05-17T04:42:38.988Z,17.3978
2023-05-17T04:43:42.902Z,17.3833
2023-05-17T04:44:47.046Z,17.3504
2023-05-17T04:45:50.926Z,17.3724
2023-05-17T04:46:54.820Z,17.3580
2023-05-17T04:47:58.779Z,17.3520
2023-05-17T04:49:02.736Z,17.3662
2023-05-17T04:50:06.683Z,17.3615
2023-05-17T04:51:10.593Z,17.3557
2023-05-17T04:52:14.535Z,17.3557
2023-05-17T04:53:18.396Z,17.3486
2023-05-17T04:54:22.306Z,17.3301
2023-05-17T04:55:26.922Z,17.3288
2023-05-17T04:56:30.936Z,17.3604
2023-05-17T04:57:34.846Z,17.3384
2023-05-17T04:58:38.741Z,17.3544
2023-05-17T04:59:42.884Z,17.3081
2023-05-17T05:00:46.788Z,17.3513
2023-05-17T05:01:50.700Z,17.3408
2023-05-17T05:02:54.726Z,17.3255
2023-05-17T05:03:58.687Z,17.3475
2023-05-17T05:05:02.659Z,17.3054
2023-05-17T05:06:06.536Z,17.3284
2023-05-17T05:07:10.473Z,17.3326
2023-05-17T05:08:14.395Z,17.2963
2023-05-17T05:09:18.282Z,17.3333
2023-05-17T05:10:22.172Z,17.3253
2023-05-17T05:11:26.160Z,17.3479
2023-05-17T05:12:31.096Z,17.3446
2023-05-17T05:13:34.968Z,17.2507
2023-05-17T05:14:38.870Z,17.2429
2023-05-17T05:15:42.780Z,17.2894
2023-05-17T05:16:46.703Z,17.3609
2023-05-17T05:17:50.772Z,17.3602
2023-05-17T05:18:54.977Z,17.3179
2023-05-17T05:19:59.107Z,17.3074
2023-05-17T05:21:03.088Z,17.3417
2023-05-17T05:22:07.017Z,17.3139
2023-05-17T05:23:10.902Z,17.3126
2023-05-17T05:24:14.814Z,17.3313
2023-05-17T05:25:18.925Z,17.2963
2023-05-17T05:26:22.811Z,17.3132
2023-05-17T05:27:26.718Z,17.3146
2023-05-17T05:28:30.632Z,17.2952
2023-05-17T05:29:34.552Z,17.3032
2023-05-17T05:30:38.441Z,17.3497
2023-05-17T05:31:42.357Z,17.3219
2023-05-17T05:32:46.296Z,17.3317
2023-05-17T05:33:50.252Z,17.3419
2023-05-17T05:34:54.164Z,17.3386
2023-05-17T05:35:58.062Z,17.3453
2023-05-17T05:37:02.189Z,17.3524
2023-05-17T05:38:06.085Z,17.3279
2023-05-17T05:39:10.115Z,17.2783
2023-05-17T05:40:14.062Z,17.3244
2023-05-17T05:41:17.921Z,17.3112
2023-05-17T05:42:22.149Z,17.3021
2023-05-17T05:43:26.028Z,17.3161
2023-05-17T05:44:29.942Z,17.2994
2023-05-17T05:45:33.854Z,17.3068
2023-05-17T05:46:37.739Z,17.3177
2023-05-17T05:47:41.695Z,17.2957
2023-05-17T05:48:45.624Z,17.2988
2023-05-17T05:49:49.755Z,17.3386
2023-05-17T05:50:53.655Z,17.2941
2023-05-17T05:51:57.568Z,17.3168
2023-05-17T05:53:14.408Z,17.3219
2023-05-17T05:54:05.978Z,17.3298
2023-05-17T06:06:56.663Z,17.3244
2023-05-17T06:08:48.646Z,17.3733
2023-05-17T06:09:50.384Z,17.3475
2023-05-17T06:10:52.127Z,17.3581
2023-05-17T06:11:53.838Z,17.3639
2023-05-17T06:12:55.570Z,17.3571
2023-05-17T06:13:57.326Z,17.3388
2023-05-17T06:14:59.027Z,17.3569
2023-05-17T06:16:00.797Z,17.3540
2023-05-17T06:17:02.503Z,17.3766
2023-05-17T06:18:04.340Z,17.3709
2023-05-17T06:19:06.023Z,17.3302
2023-05-17T06:20:07.715Z,17.3733
2023-05-17T06:21:09.439Z,17.3709
2023-05-17T06:22:11.212Z,17.3735
2023-05-17T06:23:12.892Z,17.3779
2023-05-17T06:24:14.631Z,17.3444
2023-05-17T06:25:16.554Z,17.3596
2023-05-17T06:26:18.122Z,17.3456
2023-05-17T06:27:19.837Z,17.3456
2023-05-17T06:28:21.559Z,17.3370
2023-05-17T06:29:23.298Z,17.3325
2023-05-17T06:30:25.053Z,17.3435
2023-05-17T06:31:26.758Z,17.3637
2023-05-17T06:32:28.547Z,17.3388
2023-05-17T06:33:30.304Z,17.3585
2023-05-17T06:34:31.954Z,17.3435
2023-05-17T06:35:47.536Z,17.3592
2023-05-17T06:36:36.622Z,17.3220
2023-05-17T06:37:37.207Z,17.3553
2023-05-17T06:38:38.913Z,17.3647
2023-05-17T06:39:41.171Z,17.3657
2023-05-17T06:40:42.351Z,17.3690
2023-05-17T06:41:44.111Z,17.3809
2023-05-17T06:42:45.811Z,17.3678
2023-05-17T06:43:47.552Z,17.3624
2023-05-17T06:44:49.307Z,17.3664
2023-05-17T06:45:51.041Z,17.3561
2023-05-17T06:46:52.753Z,17.3594
2023-05-17T06:47:54.558Z,17.3090
2023-05-17T06:48:56.382Z,17.3325
2023-05-17T06:49:57.958Z,17.3043
2023-05-17T06:50:59.696Z,17.3238
2023-05-17T06:52:01.455Z,17.3218
2023-05-17T06:53:03.207Z,17.3269
2023-05-17T06:54:04.891Z,17.3253
2023-05-17T06:55:06.638Z,17.3421
2023-05-17T06:56:08.348Z,17.3251
2023-05-17T06:57:10.093Z,17.3423
2023-05-17T06:58:11.804Z,17.3078
2023-05-17T06:59:13.545Z,17.3386
2023-05-17T07:00:15.295Z,17.2988
2023-05-17T07:01:17.001Z,17.3281
2023-05-17T07:02:18.757Z,17.2957
2023-05-17T07:03:20.545Z,17.2850
2023-05-17T07:04:22.565Z,17.2710
2023-05-17T07:05:23.986Z,17.2930
2023-05-17T07:06:25.668Z,17.3078
2023-05-17T07:07:27.420Z,17.3164
2023-05-17T07:08:29.297Z,17.3152
2023-05-17T07:09:30.880Z,17.3368
2023-05-17T07:10:32.611Z,17.3205
2023-05-17T07:11:34.325Z,17.3238
2023-05-17T07:12:36.082Z,17.3251
2023-05-17T07:13:37.823Z,17.3129
2023-05-17T07:14:39.549Z,17.3074
2023-05-17T07:15:41.274Z,17.3076
2023-05-17T07:16:43.003Z,17.3111
2023-05-17T07:17:44.726Z,17.2979
2023-05-17T07:18:46.556Z,17.3119
2023-05-17T07:19:48.289Z,17.3150
2023-05-17T07:20:49.912Z,17.3269
2023-05-17T07:21:51.640Z,17.3273
2023-05-17T07:22:53.498Z,17.2743
2023-05-17T07:23:55.153Z,17.2949
2023-05-17T07:24:56.835Z,17.2988
2023-05-17T07:25:58.598Z,17.3107
2023-05-17T07:27:00.294Z,17.3121
2023-05-17T07:28:02.056Z,17.2977
2023-05-17T07:29:03.801Z,17.3304
2023-05-17T07:30:05.520Z,17.2922
2023-05-17T07:31:07.218Z,17.2663
2023-05-17T07:32:08.965Z,17.2712
2023-05-17T07:33:11.468Z,17.3076
2023-05-17T07:34:12.428Z,17.3403
2023-05-17T07:35:14.170Z,17.3185
2023-05-17T07:36:15.905Z,17.3271
2023-05-17T07:37:17.640Z,17.3308
2023-05-17T07:38:19.337Z,17.3388
2023-05-17T07:39:21.119Z,17.3425
2023-05-17T07:40:22.808Z,17.3594
2023-05-17T07:41:24.552Z,17.3540
2023-05-17T07:42:26.262Z,17.3766
2023-05-17T07:43:28.018Z,17.3986
2023-05-17T07:44:29.720Z,17.4122
2023-05-17T07:45:31.586Z,17.4378
2023-05-17T07:46:33.209Z,17.4600
2023-05-17T07:47:35.056Z,17.4974
2023-05-17T07:48:36.809Z,17.5428
2023-05-17T07:49:38.371Z,17.5874
2023-05-17T07:50:40.097Z,17.6640
2023-05-17T07:51:41.845Z,17.7285
2023-05-17T07:52:43.561Z,17.7698
2023-05-17T07:53:45.311Z,17.8341
2023-05-17T07:54:47.035Z,17.8158
2023-05-17T07:55:48.761Z,17.8454
2023-05-17T07:56:50.503Z,17.8770
2023-05-17T07:57:52.230Z,17.9072
2023-05-17T07:58:53.944Z,18.0181
2023-05-17T07:59:55.701Z,18.0173
2023-05-17T08:00:57.432Z,18.0224
2023-05-17T08:01:59.152Z,18.0799
2023-05-17T08:03:00.942Z,18.0970
2023-05-17T08:04:02.630Z,18.1638
2023-05-17T08:05:04.434Z,18.2145
2023-05-17T08:06:06.131Z,18.2301
2023-05-17T08:07:07.777Z,18.3092
2023-05-17T08:08:09.508Z,18.2960
2023-05-17T08:09:11.242Z,18.3464
2023-05-17T08:10:12.985Z,18.3905
2023-05-17T08:11:15.328Z,18.4203
2023-05-17T08:12:16.453Z,18.4645
2023-05-17T08:13:18.140Z,18.5345
2023-05-17T08:14:19.887Z,18.5277
2023-05-17T08:15:21.626Z,18.5924
2023-05-17T08:16:23.345Z,18.6662
2023-05-17T08:17:25.090Z,18.6563
2023-05-17T08:18:26.865Z,18.6845
2023-05-17T08:19:28.699Z,18.7219
2023-05-17T08:20:30.255Z,18.7646
2023-05-17T08:21:31.971Z,18.8059
2023-05-17T08:22:33.686Z,18.8348
2023-05-17T08:23:35.430Z,18.8901
2023-05-17T08:24:37.161Z,18.9318
2023-05-17T08:25:38.877Z,18.9394
2023-05-17T08:26:40.630Z,18.9655
2023-05-17T08:27:42.314Z,19.0053
2023-05-17T08:28:44.044Z,19.0310
2023-05-17T08:29:45.781Z,19.0536
2023-05-17T08:30:47.515Z,19.1078
2023-05-17T08:31:49.256Z,19.1271
2023-05-17T08:32:51.055Z,19.2198
2023-05-17T08:33:52.754Z,19.2395
2023-05-17T08:34:54.421Z,19.2222
2023-05-17T08:35:56.163Z,19.2489
2023-05-17T08:36:57.978Z,19.3613
2023-05-17T08:37:59.626Z,19.3157
2023-05-17T08:39:01.441Z,19.3722
2023-05-17T08:40:03.105Z,19.3781
2023-05-17T08:41:04.817Z,19.4274
2023-05-17T08:42:06.544Z,19.4821
2023-05-17T08:43:08.243Z,19.4578
2023-05-17T08:44:10.026Z,19.5032
2023-05-17T08:45:11.706Z,19.4981
2023-05-17T08:46:13.453Z,19.5453
2023-05-17T08:47:15.186Z,19.6090
2023-05-17T08:48:16.983Z,19.5766
2023-05-17T08:49:18.697Z,19.6100
2023-05-17T08:50:20.373Z,19.6271
2023-05-17T08:51:22.130Z,19.6437
2023-05-17T08:52:23.832Z,19.6606
2023-05-17T08:53:25.649Z,19.6854
2023-05-17T08:54:27.272Z,19.6945
2023-05-17T08:55:29.017Z,19.7029
2023-05-17T08:56:30.727Z,19.7253
2023-05-17T08:57:32.482Z,19.7569
2023-05-17T08:58:41.002Z,19.7717
2023-05-17T08:59:35.928Z,19.8097
2023-05-17T09:00:37.638Z,19.8442
2023-05-17T09:01:39.387Z,19.8602
2023-05-17T09:02:41.136Z,19.8982
2023-05-17T09:03:42.852Z,19.9009
2023-05-17T09:04:44.632Z,19.9391
2023-05-17T09:05:46.298Z,19.9303
2023-05-17T09:06:48.007Z,19.9822
2023-05-17T09:07:49.755Z,19.9767
2023-05-17T09:08:51.459Z,19.9956
2023-05-17T09:09:53.187Z,20.0233
2023-05-17T09:10:54.937Z,20.0233
2023-05-17T09:11:56.680Z,20.0377
2023-05-17T09:12:58.368Z,20.0714
2023-05-17T09:14:00.168Z,20.0708
2023-05-17T09:15:01.860Z,20.1145
2023-05-17T09:16:03.583Z,20.1392
2023-05-17T09:17:05.312Z,20.1949
2023-05-17T09:18:07.161Z,20.1534
2023-05-17T09:19:08.820Z,20.1727
2023-05-17T09:20:10.544Z,20.1955
2023-05-17T09:21:12.193Z,20.2351
2023-05-17T09:22:13.921Z,20.2392
2023-05-17T09:23:15.663Z,20.2396
2023-05-17T09:24:17.397Z,20.2579
2023-05-17T09:25:19.123Z,20.2821
2023-05-17T09:26:20.845Z,20.2984
2023-05-17T09:27:22.550Z,20.3039
2023-05-17T09:28:24.300Z,20.3255
2023-05-17T09:29:26.031Z,20.3267
2023-05-17T09:30:27.946Z,20.3471
2023-05-17T09:31:29.501Z,20.3635
2023-05-17T09:32:31.197Z,20.3727
2023-05-17T09:33:32.978Z,20.3890
2023-05-17T09:34:34.671Z,20.4241
2023-05-17T09:35:36.393Z,20.4132
2023-05-17T09:36:38.446Z,20.4305
2023-05-17T09:37:39.841Z,20.4426
2023-05-17T09:38:41.589Z,20.4477
2023-05-17T09:39:43.291Z,20.4627
2023-05-17T09:40:45.044Z,20.4915
2023-05-17T09:41:47.215Z,20.4999
2023-05-17T09:42:48.477Z,20.5044
2023-05-17T09:43:50.229Z,20.5196
2023-05-17T09:44:51.933Z,20.5124
2023-05-17T09:45:53.681Z,20.5274
2023-05-17T09:46:55.382Z,20.5243
2023-05-17T09:47:57.153Z,20.6053
2023-05-17T09:48:58.988Z,20.5416
2023-05-17T09:50:00.597Z,20.5126
2023-05-17T09:51:02.318Z,20.5106
2023-05-17T09:52:04.037Z,20.5136
2023-05-17T09:53:05.754Z,20.5073
2023-05-17T09:54:07.498Z,20.5334
2023-05-17T09:55:09.236Z,20.5245
2023-05-17T09:56:10.957Z,20.4913
2023-05-17T09:57:12.662Z,20.5262
2023-05-17T09:58:14.597Z,20.4972
2023-05-17T09:59:16.352Z,20.5200
2023-05-17T10:00:17.845Z,20.4943
2023-05-17T10:01:19.574Z,20.4913
2023-05-17T10:02:21.352Z,20.4847
2023-05-17T10:03:23.066Z,20.4783
2023-05-17T10:04:24.755Z,20.4668
2023-05-17T10:05:26.690Z,20.5015
2023-05-17T10:07:29.981Z,20.5019
2023-05-17T10:08:31.694Z,20.5097
2023-05-17T10:09:33.398Z,20.4680
2023-05-17T10:10:35.227Z,20.4793
2023-05-17T10:11:36.950Z,20.4726
2023-05-17T10:12:38.686Z,20.5397
2023-05-17T10:13:40.431Z,20.4954
2023-05-17T10:14:42.146Z,20.4705
2023-05-17T10:15:43.887Z,20.4789
2023-05-17T10:16:45.594Z,20.4730
2023-05-17T10:17:47.351Z,20.4761
2023-05-17T10:18:49.132Z,20.4510
2023-05-17T10:19:50.900Z,20.4637
2023-05-17T10:20:52.518Z,20.4500
2023-05-17T10:21:54.239Z,20.4588
2023-05-17T10:22:58.449Z,20.4376
2023-05-17T10:23:57.670Z,20.4446
2023-05-17T10:24:59.434Z,20.4313
2023-05-17T10:26:01.162Z,20.4284
2023-05-17T10:27:02.856Z,20.4153
2023-05-17T10:28:04.601Z,20.4167
2023-05-17T10:29:06.332Z,20.4124
2023-05-17T10:30:08.041Z,20.4257
2023-05-17T10:31:09.780Z,20.4013
2023-05-17T10:32:11.536Z,20.3949
2023-05-17T10:33:13.284Z,20.3949
2023-05-17T10:34:15.030Z,20.3949
2023-05-17T10:35:16.700Z,20.3922
2023-05-17T10:36:18.416Z,20.4187
2023-05-17T10:37:20.143Z,20.4054
2023-05-17T10:38:24.097Z,20.4056
2023-05-17T10:39:23.602Z,20.4021
2023-05-17T10:40:25.352Z,20.4003
2023-05-17T10:41:27.073Z,20.4023
2023-05-17T10:42:28.796Z,20.3982
2023-05-17T10:43:30.561Z,20.4013
2023-05-17T10:44:32.264Z,20.4118
2023-05-17T10:45:33.993Z,20.4122
2023-05-17T10:46:35.741Z,20.3990
2023-05-17T10:47:37.478Z,20.4081
2023-05-17T10:48:39.251Z,20.3888
2023-05-17T10:49:40.923Z,20.3888
2023-05-17T10:50:54.095Z,20.3775
2023-05-17T10:51:44.368Z,20.3877
2023-05-17T10:52:46.110Z,20.3785
2023-05-17T10:53:47.836Z,20.3742
2023-05-17T10:54:49.552Z,20.3660
2023-05-17T10:55:51.272Z,20.3824
2023-05-17T10:56:53.042Z,20.3711
2023-05-17T10:57:54.728Z,20.3680
2023-05-17T10:58:56.529Z,20.3623
2023-05-17T10:59:58.216Z,20.3633
2023-05-17T11:00:59.939Z,20.3621
2023-05-17T11:02:01.697Z,20.3625
2023-05-17T11:03:03.411Z,20.3557
2023-05-17T11:04:05.115Z,20.3584
2023-05-17T11:05:06.885Z,20.3407
2023-05-17T11:06:13.093Z,20.3551
2023-05-17T11:07:10.396Z,20.3436
2023-05-17T11:08:12.032Z,20.3682
2023-05-17T11:09:13.796Z,20.3645
2023-05-17T11:10:15.506Z,20.3594
2023-05-17T11:11:17.219Z,20.3503
2023-05-17T11:12:18.965Z,20.3573
2023-05-17T11:13:20.699Z,20.3429
2023-05-17T11:14:22.403Z,20.3438
2023-05-17T11:15:24.174Z,20.3288
2023-05-17T11:16:25.882Z,20.3183
2023-05-17T11:17:27.645Z,20.3119
2023-05-17T11:18:32.000Z,20.3362
2023-05-17T11:19:31.164Z,20.3206
2023-05-17T11:20:33.039Z,20.3204
2023-05-17T11:21:34.524Z,20.3226
2023-05-17T11:22:36.246Z,20.3138
2023-05-17T11:23:37.978Z,20.3319
2023-05-17T11:24:39.715Z,20.3349
2023-05-17T11:25:41.440Z,20.3399
2023-05-17T11:26:43.149Z,20.3536
2023-05-17T11:27:44.875Z,20.3173
2023-05-17T11:28:46.620Z,20.3234
2023-05-17T11:29:48.323Z,20.3265
2023-05-17T11:30:50.043Z,20.3236
2023-05-17T11:31:51.810Z,20.3286
2023-05-17T11:32:53.550Z,20.3284
2023-05-17T11:33:55.238Z,20.3310
2023-05-17T11:34:56.974Z,20.3319
2023-05-17T11:35:58.709Z,20.3337
2023-05-17T11:37:00.417Z,20.3471
2023-05-17T11:38:02.175Z,20.3286
2023-05-17T11:39:08.168Z,20.3275
2023-05-17T11:40:05.613Z,20.3409
2023-05-17T11:41:10.346Z,20.3204
2023-05-17T11:42:09.064Z,20.3224
2023-05-17T11:43:10.819Z,20.3234
2023-05-17T11:44:12.548Z,20.3349
2023-05-17T11:45:14.254Z,20.3438
2023-05-17T11:46:16.002Z,20.3247
2023-05-17T11:47:17.765Z,20.3234
2023-05-17T11:48:19.661Z,20.3162
2023-05-17T11:49:33.957Z,20.3204
2023-05-17T11:50:22.930Z,20.3224
2023-05-17T11:51:25.219Z,20.3033
2023-05-17T11:52:27.352Z,20.3013
2023-05-17T11:53:28.087Z,20.2965
2023-05-17T11:54:29.820Z,20.3002
2023-05-17T11:55:31.565Z,20.2967
2023-05-17T11:56:42.703Z,20.2893
2023-05-17T11:57:35.018Z,20.2953
2023-05-17T11:58:36.725Z,20.2955
2023-05-17T11:59:38.518Z,20.2842
2023-05-17T12:00:40.209Z,20.2778
2023-05-17T12:01:41.938Z,20.2830
2023-05-17T12:02:43.669Z,20.2811
2023-05-17T12:03:45.392Z,20.2686
2023-05-17T12:04:47.199Z,20.2663
2023-05-17T12:05:48.879Z,20.2569
2023-05-17T12:06:50.619Z,20.2559
2023-05-17T12:07:52.295Z,20.2569
2023-05-17T12:08:54.042Z,20.2497
2023-05-17T12:09:55.796Z,20.2557
2023-05-17T12:10:57.501Z,20.2534
2023-05-17T12:11:59.202Z,20.2505
2023-05-17T12:13:00.954Z,20.2548
2023-05-17T12:14:02.681Z,20.2559
2023-05-17T12:15:04.392Z,20.2382
2023-05-17T12:16:06.134Z,20.2460
2023-05-17T12:17:07.860Z,20.2415
2023-05-17T12:18:09.767Z,20.2538
2023-05-17T12:19:11.445Z,20.2495
2023-05-17T12:20:13.063Z,20.2472
2023-05-17T12:21:14.786Z,20.2439
2023-05-17T12:22:16.495Z,20.2474
2023-05-17T12:23:18.203Z,20.2402
2023-05-17T12:24:19.969Z,20.2359
2023-05-17T12:25:21.682Z,20.2372
2023-05-17T12:26:23.387Z,20.2326
2023-05-17T12:27:25.162Z,20.2394
2023-05-17T12:28:26.876Z,20.2476
2023-05-17T12:29:28.579Z,20.2407
2023-05-17T12:30:30.419Z,20.2380
2023-05-17T12:31:32.051Z,20.2439
2023-05-17T12:32:33.797Z,20.2427
2023-05-17T12:33:35.623Z,20.2392
2023-05-17T12:34:37.232Z,20.2405
2023-05-17T12:35:38.950Z,20.2384
2023-05-17T12:36:40.768Z,20.2370
2023-05-17T12:37:42.407Z,20.2279
2023-05-17T12:38:44.122Z,20.2248
2023-05-17T12:39:45.853Z,20.2269
2023-05-17T12:40:47.589Z,20.2347
2023-05-17T12:41:49.352Z,20.2326
2023-05-17T12:42:51.049Z,20.2201
2023-05-17T12:43:57.096Z,20.2103
2023-05-17T12:44:54.522Z,20.2197
2023-05-17T12:45:56.243Z,20.2220
2023-05-17T12:46:58.023Z,20.2240
2023-05-17T12:47:59.754Z,20.2189